Time;durP1;ratioP1;P1;durP2;ratioP2;P2;SDS_P1;SDS_P2;PMS_P1;PMS_P2;Temp;Humidity;BMP_temperature;BMP_pressure;BME280_temperature;BME280_humidity;BME280_pressure;Samples;Min_cycle;Max_cycle;Signal;HPM_P1;HPM_P2
2022/04/22 00:01:23;;;;;;;8.60;4.65;;;11.00;99.90;;;;;;5097658;28;20493;-69
2022/04/22 00:03:50;;;;;;;7.30;4.30;;;10.90;99.90;;;;;;5097024;28;20083;-69
2022/04/22 00:06:16;;;;;;;8.35;4.88;;;11.10;99.90;;;;;;5097230;28;20039;-69
2022/04/22 00:08:42;;;;;;;10.70;5.05;;;10.70;99.90;;;;;;5096924;28;20518;-69
2022/04/22 00:13:55;;;;;;;8.23;4.97;;;10.60;99.90;;;;;;5097166;28;20051;-69
2022/04/22 00:16:21;;;;;;;9.38;5.13;;;10.50;99.90;;;;;;5097079;28;20040;-69
2022/04/22 00:18:47;;;;;;;7.55;5.45;;;10.60;99.90;;;;;;5097052;28;20048;-69
2022/04/22 00:21:12;;;;;;;9.98;5.25;;;10.40;99.90;;;;;;5097809;28;20040;-69
2022/04/22 00:23:39;;;;;;;8.15;4.72;;;10.30;99.90;;;;;;5097532;28;20371;-69
2022/04/22 00:26:04;;;;;;;9.05;4.97;;;10.40;99.90;;;;;;5078583;28;20122;-69
2022/04/22 00:28:30;;;;;;;9.57;5.20;;;10.40;99.90;;;;;;5096659;28;20143;-69
2022/04/22 00:30:56;;;;;;;9.57;4.80;;;10.40;99.90;;;;;;5096786;28;20040;-69
2022/04/22 00:33:22;;;;;;;7.15;4.78;;;10.40;99.90;;;;;;5078808;28;20043;-69
2022/04/22 00:35:48;;;;;;;7.65;4.93;;;10.30;99.90;;;;;;5096709;28;20040;-69
2022/04/22 00:38:14;;;;;;;7.07;4.90;;;10.20;99.90;;;;;;5096676;28;20399;-69
2022/04/22 00:40:40;;;;;;;9.02;5.18;;;10.10;99.90;;;;;;5078454;28;20036;-69
2022/04/22 00:43:22;;;;;;;10.35;5.45;;;10.20;99.90;;;;;;5096547;28;20036;-69
2022/04/22 00:45:49;;;;;;;7.32;4.90;;;10.10;99.90;;;;;;5096616;28;20075;-69
2022/04/22 00:48:16;;;;;;;9.38;4.45;;;10.10;99.90;;;;;;5096399;28;20050;-70
2022/04/22 00:50:42;;;;;;;7.63;5.13;;;10.00;99.90;;;;;;5096433;28;20032;-69
2022/04/22 00:53:09;;;;;;;9.98;4.97;;;10.40;99.90;;;;;;5078478;28;20367;-70
2022/04/22 00:55:39;;;;;;;9.35;4.80;;;10.20;99.90;;;;;;5096877;28;20043;-69
2022/04/22 00:58:05;;;;;;;11.82;5.05;;;10.20;99.90;;;;;;5078347;28;20052;-69
2022/04/22 01:00:32;;;;;;;6.70;4.63;;;10.00;99.90;;;;;;5078277;28;20491;-69
2022/04/22 01:02:57;;;;;;;8.20;5.07;;;9.90;99.90;;;;;;5096124;28;20032;-69
2022/04/22 01:10:55;;;;;;;8.20;4.88;;;9.90;99.90;;;;;;5096073;28;20055;-70
2022/04/22 01:13:21;;;;;;;8.55;4.55;;;10.10;99.90;;;;;;5095597;28;20483;-69
2022/04/22 01:15:47;;;;;;;9.52;5.10;;;9.80;99.90;;;;;;5096220;28;20040;-69
2022/04/22 01:18:14;;;;;;;8.52;4.88;;;10.00;99.90;;;;;;5078114;28;20379;-69
2022/04/22 01:20:40;;;;;;;9.80;4.75;;;9.80;99.90;;;;;;5095837;28;20044;-69
2022/04/22 01:23:06;;;;;;;7.40;4.75;;;9.80;99.90;;;;;;5095831;28;20032;-70
2022/04/22 01:25:32;;;;;;;9.40;4.80;;;9.80;99.90;;;;;;5096278;28;20066;-69
2022/04/22 01:28:00;;;;;;;7.32;4.47;;;9.70;99.90;;;;;;5077892;28;20044;-70
2022/04/22 01:30:26;;;;;;;8.93;4.68;;;9.80;99.90;;;;;;5060852;28;20112;-70
2022/04/22 01:32:56;;;;;;;7.80;4.13;;;10.00;99.90;;;;;;5077511;28;20040;-70
2022/04/22 01:35:23;;;;;;;10.95;4.07;;;9.80;99.90;;;;;;5095900;28;20088;-69
2022/04/22 01:37:49;;;;;;;8.15;4.00;;;9.60;99.90;;;;;;5077978;28;20048;-70
2022/04/22 01:40:15;;;;;;;7.97;3.45;;;9.60;99.90;;;;;;5095427;28;20035;-70
2022/04/22 01:42:42;;;;;;;7.95;4.55;;;9.80;99.90;;;;;;5077333;28;20118;-70
2022/04/22 01:45:10;;;;;;;7.18;3.72;;;9.60;99.90;;;;;;5077015;28;20484;-69
2022/04/22 01:47:36;;;;;;;7.10;3.80;;;9.60;99.90;;;;;;5077297;28;20036;-69
2022/04/22 01:50:03;;;;;;;7.55;4.13;;;9.60;99.90;;;;;;5095549;28;20061;-70
2022/04/22 01:52:29;;;;;;;8.25;3.70;;;9.60;99.90;;;;;;5095125;28;20040;-69
2022/04/22 01:54:55;;;;;;;6.78;3.70;;;9.80;99.90;;;;;;5094655;28;20036;-70
2022/04/22 01:57:22;;;;;;;7.05;4.30;;;9.50;99.90;;;;;;5095663;28;20040;-69
2022/04/22 01:59:48;;;;;;;6.55;4.13;;;9.40;99.90;;;;;;5095004;28;20047;-69
2022/04/22 02:02:17;;;;;;;8.65;4.03;;;9.70;99.90;;;;;;5095361;28;20122;-69
2022/04/22 02:04:44;;;;;;;8.50;3.78;;;9.40;99.90;;;;;;5060534;28;20059;-69
2022/04/22 02:07:09;;;;;;;5.50;3.58;;;9.60;99.90;;;;;;5077093;28;20081;-69
2022/04/22 02:09:35;;;;;;;6.57;3.15;;;9.40;99.90;;;;;;5094959;28;20117;-70
2022/04/22 02:12:02;;;;;;;5.75;3.45;;;9.40;99.90;;;;;;5076747;28;20074;-70
2022/04/22 02:14:27;;;;;;;6.20;3.35;;;9.60;99.90;;;;;;5094797;28;20046;-70
2022/04/22 02:16:53;;;;;;;6.45;3.63;;;9.60;99.90;;;;;;5094786;28;20051;-70
2022/04/22 02:19:19;;;;;;;5.03;3.47;;;9.30;99.90;;;;;;5095338;28;20040;-71
2022/04/22 02:21:45;;;;;;;5.05;3.65;;;9.50;99.90;;;;;;5094755;28;20043;-70
2022/04/22 02:24:11;;;;;;;4.85;3.53;;;9.30;99.90;;;;;;5094632;28;20429;-70
2022/04/22 02:29:22;;;;;;;6.22;3.17;;;9.40;99.90;;;;;;5094497;28;20200;-70
2022/04/22 02:31:52;;;;;;;7.53;3.78;;;9.20;99.90;;;;;;5076375;28;20529;-70
2022/04/22 02:34:21;;;;;;;7.55;3.90;;;9.20;99.90;;;;;;5094429;28;20043;-70
2022/04/22 02:36:48;;;;;;;7.55;3.65;;;9.20;99.90;;;;;;5094350;28;20082;-70
2022/04/22 02:39:14;;;;;;;6.97;4.07;;;9.30;99.90;;;;;;5076462;28;20478;-70
2022/04/22 02:47:08;;;;;;;8.20;3.47;;;9.40;99.90;;;;;;5094799;28;20044;-70
2022/04/22 02:49:34;;;;;;;7.30;4.13;;;9.10;99.90;;;;;;5076288;28;20040;-70
2022/04/22 02:52:01;;;;;;;4.95;3.45;;;9.30;99.90;;;;;;5094122;28;20036;-70
2022/04/22 02:54:28;;;;;;;5.82;3.13;;;9.20;99.90;;;;;;5094666;28;20039;-70
2022/04/22 02:56:54;;;;;;;6.03;3.40;;;9.00;99.90;;;;;;5094130;28;20066;-70
2022/04/22 02:59:20;;;;;;;5.10;3.40;;;9.00;99.90;;;;;;5093993;28;20040;-70
2022/04/22 03:01:46;;;;;;;7.63;3.47;;;9.00;99.90;;;;;;5076023;28;20040;-70
2022/04/22 03:04:12;;;;;;;6.95;3.67;;;9.00;99.90;;;;;;5094210;28;20124;-69
2022/04/22 03:06:38;;;;;;;7.88;3.55;;;8.90;99.90;;;;;;5093137;28;20036;-70
2022/04/22 03:09:04;;;;;;;5.22;3.65;;;8.90;99.90;;;;;;5093909;28;20498;-70
2022/04/22 03:11:30;;;;;;;6.45;3.45;;;9.20;99.90;;;;;;5094350;28;20044;-69
2022/04/22 03:13:56;;;;;;;6.35;3.50;;;8.80;99.90;;;;;;5075949;28;20048;-69
2022/04/22 03:16:28;;;;;;;7.80;3.53;;;9.30;99.90;;;;;;5094437;28;20039;-70
2022/04/22 03:18:54;;;;;;;5.35;3.45;;;8.80;99.90;;;;;;5093537;28;20556;-70
2022/04/22 03:21:19;;;;;;;4.80;3.30;;;9.00;99.90;;;;;;5093746;28;20036;-70
2022/04/22 03:23:45;;;;;;;7.28;3.47;;;9.80;99.90;;;;;;5075820;28;20464;-69
2022/04/22 03:26:11;;;;;;;7.53;3.97;;;9.00;99.90;;;;;;5075727;28;20126;-70
2022/04/22 03:28:38;;;;;;;5.68;3.47;;;8.70;99.90;;;;;;5093755;28;20036;-69
2022/04/22 03:31:04;;;;;;;5.47;3.42;;;8.70;99.90;;;;;;5093622;28;20058;-69
2022/04/22 03:33:30;;;;;;;6.25;3.63;;;9.10;99.90;;;;;;5075817;28;20039;-69
2022/04/22 03:35:56;;;;;;;7.47;2.90;;;9.10;99.90;;;;;;5093583;28;20044;-70
2022/04/22 03:38:22;;;;;;;8.00;4.40;;;8.80;99.90;;;;;;5093578;28;20039;-70
2022/04/22 03:40:48;;;;;;;5.43;3.13;;;9.20;99.90;;;;;;5075772;28;20047;-70
2022/04/22 03:43:15;;;;;;;7.32;3.85;;;8.60;99.90;;;;;;5093815;28;20047;-70
2022/04/22 03:45:41;;;;;;;6.13;3.42;;;8.60;99.90;;;;;;5093540;28;20047;-69
2022/04/22 03:48:10;;;;;;;7.82;3.47;;;8.60;99.90;;;;;;5093502;28;20047;-69
2022/04/22 03:50:37;;;;;;;8.77;4.00;;;8.50;99.90;;;;;;5093424;28;20040;-70
2022/04/22 03:53:08;;;;;;;5.53;3.22;;;8.50;99.90;;;;;;5076166;28;20054;-69
2022/04/22 03:55:34;;;;;;;5.03;3.50;;;8.50;99.90;;;;;;5093172;28;20535;-70
2022/04/22 03:58:12;;;;;;;6.15;3.72;;;8.40;99.90;;;;;;5093424;28;20079;-70
2022/04/22 04:00:41;;;;;;;4.80;3.30;;;8.50;99.90;;;;;;5093924;28;20040;-70
2022/04/22 04:03:11;;;;;;;6.22;3.30;;;8.50;99.90;;;;;;5093368;28;20089;-70
2022/04/22 04:05:41;;;;;;;5.40;3.63;;;8.40;99.90;;;;;;5093376;28;20460;-70
2022/04/22 04:08:10;;;;;;;6.80;3.90;;;8.30;99.90;;;;;;5093319;28;20127;-70
2022/04/22 04:16:04;;;;;;;5.55;3.83;;;8.20;99.90;;;;;;5094147;28;20192;-69
2022/04/22 04:18:35;;;;;;;7.40;3.97;;;8.20;99.90;;;;;;5096133;28;20057;-70
2022/04/22 04:23:47;;;;;;;6.03;3.60;;;8.60;99.90;;;;;;5097621;28;20098;-71
2022/04/22 04:26:15;;;;;;;4.18;3.28;;;8.50;99.90;;;;;;5097009;28;20104;-70
2022/04/22 04:28:42;;;;;;;5.78;3.40;;;8.50;99.90;;;;;;5097163;28;20064;-69
2022/04/22 04:31:08;;;;;;;7.03;3.67;;;8.40;99.90;;;;;;5096761;28;20052;-70
2022/04/22 04:33:38;;;;;;;6.55;3.90;;;8.30;99.90;;;;;;5078255;28;20044;-69
2022/04/22 04:36:05;;;;;;;7.22;3.88;;;8.30;99.90;;;;;;5078809;28;20096;-70
2022/04/22 04:38:31;;;;;;;9.30;4.00;;;8.10;99.90;;;;;;5096630;28;20116;-69
2022/04/22 04:40:58;;;;;;;4.43;3.50;;;8.30;99.90;;;;;;5062527;28;20410;-70
2022/04/22 04:43:24;;;;;;;5.63;3.38;;;8.30;99.90;;;;;;5096503;28;20036;-70
2022/04/22 04:45:50;;;;;;;5.18;3.38;;;8.50;99.90;;;;;;5096470;28;20050;-69
2022/04/22 04:48:17;;;;;;;6.90;3.72;;;8.00;99.90;;;;;;5096418;28;20046;-70
2022/04/22 04:50:43;;;;;;;8.40;3.85;;;8.00;99.90;;;;;;5078793;28;20056;-70
2022/04/22 04:53:11;;;;;;;5.35;3.03;;;8.20;99.90;;;;;;5078536;28;20044;-69
2022/04/22 04:55:37;;;;;;;6.03;3.22;;;8.20;99.90;;;;;;5078413;28;20055;-69
2022/04/22 04:58:03;;;;;;;4.43;3.08;;;7.90;99.90;;;;;;5078377;28;20040;-70
2022/04/22 05:00:29;;;;;;;4.63;2.75;;;8.00;99.90;;;;;;5096195;28;20087;-70
2022/04/22 05:02:55;;;;;;;6.15;2.60;;;8.30;99.90;;;;;;5095884;28;20079;-69
2022/04/22 05:05:20;;;;;;;4.95;2.72;;;8.40;99.90;;;;;;5096113;28;20123;-70
2022/04/22 05:07:59;;;;;;;4.70;3.00;;;8.00;99.90;;;;;;5079010;28;20040;-69
2022/04/22 05:10:29;;;;;;;4.18;2.40;;;8.00;99.90;;;;;;5096059;28;20095;-69
2022/04/22 05:12:55;;;;;;;3.67;2.40;;;8.40;99.90;;;;;;5096467;28;20047;-70
2022/04/22 05:15:23;;;;;;;6.28;2.17;;;8.70;99.90;;;;;;5095936;28;20047;-70
2022/04/22 05:17:49;;;;;;;4.00;2.53;;;8.40;99.90;;;;;;5095850;28;20052;-69
2022/04/22 05:20:17;;;;;;;4.22;2.47;;;8.10;99.90;;;;;;5095552;28;20552;-71
2022/04/22 05:22:43;;;;;;;4.07;2.42;;;8.10;99.90;;;;;;5096074;28;20070;-69
2022/04/22 05:25:12;;;;;;;4.90;2.33;;;8.00;99.90;;;;;;5095755;28;20044;-70
2022/04/22 05:27:38;;;;;;;4.38;2.47;;;8.20;99.90;;;;;;5095674;28;20087;-70
2022/04/22 05:32:51;;;;;;;4.45;2.40;;;8.10;99.90;;;;;;5095824;28;20109;-70
2022/04/22 05:35:19;;;;;;;3.72;2.50;;;8.40;99.90;;;;;;5096168;28;20407;-70
2022/04/22 05:37:57;;;;;;;4.50;2.60;;;8.30;99.90;;;;;;5077661;28;20113;-70
2022/04/22 05:40:31;;;;;;;4.90;2.15;;;8.20;99.90;;;;;;5077739;28;20052;-69
2022/04/22 05:42:57;;;;;;;3.38;1.77;;;8.20;99.90;;;;;;5095162;28;20494;-70
2022/04/22 05:45:24;;;;;;;3.83;2.17;;;8.30;99.90;;;;;;5095340;28;20070;-69
2022/04/22 05:47:51;;;;;;;3.72;2.33;;;8.10;99.90;;;;;;5077707;28;20052;-69
2022/04/22 05:50:18;;;;;;;3.63;1.55;;;8.50;99.90;;;;;;5095243;28;20052;-69
2022/04/22 05:52:44;;;;;;;3.00;1.70;;;8.40;99.90;;;;;;5095128;28;20046;-69
2022/04/22 05:55:13;;;;;;;2.97;1.95;;;8.10;99.90;;;;;;5077546;28;20048;-69
2022/04/22 05:57:39;;;;;;;4.72;2.10;;;8.40;99.90;;;;;;5095128;28;20106;-70
2022/04/22 06:00:08;;;;;;;4.65;1.90;;;8.10;99.90;;;;;;5094962;28;20044;-69
2022/04/22 06:02:34;;;;;;;5.15;1.92;;;8.20;99.90;;;;;;5077255;28;20040;-69
2022/04/22 06:05:00;;;;;;;4.72;2.05;;;9.20;99.90;;;;;;5095767;28;20381;-69
2022/04/22 06:07:26;;;;;;;2.75;1.70;;;8.20;99.90;;;;;;5095716;28;20055;-69
2022/04/22 06:12:36;;;;;;;4.07;1.73;;;8.30;99.90;;;;;;5095014;28;20044;-69
2022/04/22 06:15:04;;;;;;;2.72;1.23;;;8.60;99.90;;;;;;5094853;28;20470;-69
2022/04/22 06:17:31;;;;;;;2.40;1.30;;;8.40;99.90;;;;;;5077111;28;20541;-69
2022/04/22 06:19:58;;;;;;;3.53;2.42;;;9.10;99.90;;;;;;5077065;28;20048;-68
2022/04/22 06:22:25;;;;;;;2.72;1.58;;;8.40;99.90;;;;;;5076504;28;20369;-68
2022/04/22 06:24:51;;;;;;;3.67;1.40;;;8.40;99.90;;;;;;5094612;28;20044;-68
2022/04/22 06:27:29;;;;;;;2.85;1.70;;;8.50;99.90;;;;;;5076688;28;20139;-68
2022/04/22 06:29:55;;;;;;;3.95;1.50;;;8.80;99.90;;;;;;5076855;28;20060;-68
2022/04/22 06:32:22;;;;;;;2.85;1.45;;;8.60;99.90;;;;;;5094338;28;20097;-68
2022/04/22 06:34:50;;;;;;;3.55;1.52;;;8.50;99.90;;;;;;5059744;28;20135;-69
2022/04/22 06:37:16;;;;;;;2.88;1.40;;;8.60;99.90;;;;;;5094302;28;20101;-68
2022/04/22 06:47:56;;;;;;;4.03;1.45;;;8.80;99.90;;;;;;5094171;28;20044;-68
2022/04/22 06:50:22;;;;;;;2.35;1.10;;;8.80;99.90;;;;;;5059511;28;20047;-68
2022/04/22 06:52:48;;;;;;;4.47;1.65;;;8.90;99.90;;;;;;5076078;28;20111;-68
2022/04/22 06:55:15;;;;;;;4.07;1.70;;;8.90;99.90;;;;;;5094007;28;20095;-68
2022/04/22 06:57:45;;;;;;;3.38;1.60;;;9.00;99.90;;;;;;5075984;28;20056;-68
2022/04/22 07:00:12;;;;;;;2.13;1.40;;;9.00;99.90;;;;;;5093931;28;20040;-68
2022/04/22 07:02:38;;;;;;;4.78;1.50;;;9.00;99.90;;;;;;5059600;28;20060;-69
2022/04/22 07:05:04;;;;;;;3.15;1.48;;;9.10;99.90;;;;;;5076076;28;20079;-69
2022/04/22 07:07:29;;;;;;;3.13;1.60;;;9.20;99.90;;;;;;5075909;28;20048;-68
2022/04/22 07:09:55;;;;;;;3.67;1.67;;;9.30;99.90;;;;;;5076057;28;20040;-69
2022/04/22 07:12:26;;;;;;;3.38;1.52;;;9.30;99.90;;;;;;5075915;28;20048;-69
2022/04/22 07:15:03;;;;;;;4.78;1.38;;;9.30;99.90;;;;;;5076873;28;20048;-68
2022/04/22 07:17:38;;;;;;;2.13;1.50;;;9.40;99.90;;;;;;5095979;28;20377;-68
2022/04/22 07:20:13;;;;;;;4.10;1.75;;;9.50;99.90;;;;;;5075975;28;20055;-68
2022/04/22 07:22:40;;;;;;;2.50;1.30;;;9.50;99.90;;;;;;5093883;28;20047;-68
2022/04/22 07:25:07;;;;;;;4.30;1.80;;;9.60;99.90;;;;;;5076367;28;20048;-68
2022/04/22 07:27:35;;;;;;;4.07;1.75;;;9.70;99.90;;;;;;5094314;28;20087;-68
2022/04/22 07:30:02;;;;;;;2.65;1.50;;;9.70;99.90;;;;;;5094137;28;20064;-69
2022/04/22 07:32:28;;;;;;;4.13;1.48;;;9.80;99.90;;;;;;5093678;28;20084;-69
2022/04/22 07:34:54;;;;;;;5.53;1.52;;;9.90;99.90;;;;;;5076233;28;20121;-67
2022/04/22 07:37:21;;;;;;;3.60;1.20;;;9.90;99.90;;;;;;5094032;28;20083;-69
2022/04/22 07:39:47;;;;;;;5.07;1.80;;;9.90;99.90;;;;;;5075926;28;20123;-68
2022/04/22 07:42:18;;;;;;;3.25;1.83;;;10.00;99.90;;;;;;5094198;28;20033;-68
2022/04/22 07:47:36;;;;;;;3.70;1.48;;;10.10;99.90;;;;;;5093702;28;20048;-67
2022/04/22 07:50:05;;;;;;;4.03;1.55;;;10.20;99.90;;;;;;5093583;28;20051;-67
2022/04/22 07:52:36;;;;;;;2.45;1.40;;;10.20;99.90;;;;;;5094801;28;20040;-68
2022/04/22 07:55:03;;;;;;;2.28;1.45;;;10.30;99.90;;;;;;5080139;28;20040;-68
2022/04/22 07:57:29;;;;;;;4.22;1.50;;;10.30;99.90;;;;;;5097900;28;20134;-68
2022/04/22 07:59:55;;;;;;;2.75;1.40;;;10.50;99.90;;;;;;5097748;28;20048;-68
2022/04/22 08:02:21;;;;;;;2.70;1.25;;;10.50;99.90;;;;;;5097732;28;20036;-68
2022/04/22 08:04:47;;;;;;;2.03;1.40;;;10.70;99.90;;;;;;5097411;28;20048;-68
2022/04/22 08:07:15;;;;;;;2.00;1.65;;;10.50;99.90;;;;;;5097444;28;20048;-69
2022/04/22 08:09:41;;;;;;;3.92;1.40;;;10.60;99.90;;;;;;5098189;28;20375;-68
2022/04/22 08:12:08;;;;;;;3.80;1.52;;;10.70;99.90;;;;;;5097247;28;20518;-68
2022/04/22 08:14:34;;;;;;;2.97;1.52;;;10.70;99.90;;;;;;5097234;28;20083;-68
2022/04/22 08:17:01;;;;;;;2.88;1.65;;;10.70;99.90;;;;;;5097200;28;20048;-69
2022/04/22 08:19:26;;;;;;;5.65;2.17;;;11.00;99.90;;;;;;5097159;28;20044;-70
2022/04/22 08:21:52;;;;;;;4.93;1.65;;;11.00;99.90;;;;;;5097113;28;20059;-69
2022/04/22 08:24:18;;;;;;;2.25;1.30;;;10.80;99.90;;;;;;5097608;28;20047;-70
2022/04/22 08:26:45;;;;;;;1.90;1.25;;;10.90;99.90;;;;;;5097027;28;20387;-69
2022/04/22 08:29:11;;;;;;;2.50;1.40;;;11.40;99.90;;;;;;5096638;28;20484;-69
2022/04/22 08:31:37;;;;;;;2.10;1.40;;;11.10;99.90;;;;;;5078525;28;20068;-69
2022/04/22 08:34:03;;;;;;;2.80;1.60;;;11.10;99.90;;;;;;5096853;28;20476;-70
2022/04/22 08:36:29;;;;;;;4.65;1.48;;;11.30;99.90;;;;;;5096824;28;20040;-70
2022/04/22 08:38:57;;;;;;;3.45;1.10;;;11.20;99.90;;;;;;5097286;28;20045;-69
2022/04/22 08:41:23;;;;;;;3.50;1.40;;;11.30;99.90;;;;;;5096736;28;20043;-69
2022/04/22 08:43:51;;;;;;;3.92;1.10;;;11.50;99.90;;;;;;5096625;28;20036;-69
2022/04/22 08:51:47;;;;;;;5.13;1.60;;;11.60;99.90;;;;;;5096481;28;20051;-68
2022/04/22 08:54:14;;;;;;;4.00;1.55;;;11.70;99.90;;;;;;5096432;28;20051;-69
2022/04/22 08:56:42;;;;;;;3.10;1.35;;;11.70;99.90;;;;;;5096144;28;20511;-69
2022/04/22 08:59:09;;;;;;;2.47;1.70;;;11.80;99.90;;;;;;5097297;28;20090;-69
2022/04/22 09:01:37;;;;;;;2.80;1.30;;;11.90;99.90;;;;;;5078155;28;20502;-68
2022/04/22 09:04:06;;;;;;;3.35;1.33;;;12.10;99.90;;;;;;5077277;28;20051;-68
2022/04/22 09:06:32;;;;;;;2.78;1.50;;;12.00;99.90;;;;;;5096238;28;20070;-69
2022/04/22 09:08:58;;;;;;;2.58;1.45;;;12.10;99.90;;;;;;5096223;28;20055;-69
2022/04/22 09:11:24;;;;;;;3.40;1.60;;;12.10;99.90;;;;;;5096232;28;20075;-68
2022/04/22 09:13:50;;;;;;;2.83;1.60;;;12.30;99.90;;;;;;5096047;28;20459;-68
2022/04/22 09:16:22;;;;;;;5.10;1.50;;;12.20;99.90;;;;;;5078311;28;20388;-68
2022/04/22 09:18:58;;;;;;;2.87;1.33;;;12.30;99.90;;;;;;5096357;28;20168;-68
2022/04/22 09:21:25;;;;;;;2.83;1.30;;;12.30;99.90;;;;;;5096839;28;20376;-69
2022/04/22 09:23:51;;;;;;;3.17;1.27;;;12.30;99.90;;;;;;5095492;28;20039;-66
2022/04/22 09:26:24;;;;;;;3.65;1.95;;;12.40;99.90;;;;;;5094997;28;20079;-67
2022/04/22 09:29:01;;;;;;;2.92;1.48;;;12.50;99.90;;;;;;5077037;28;20047;-68
2022/04/22 09:31:46;;;;;;;4.10;1.50;;;12.50;99.90;;;;;;5094571;28;20051;-68
2022/04/22 09:34:14;;;;;;;2.22;1.30;;;12.60;99.90;;;;;;5094299;28;20048;-69
2022/04/22 09:44:59;;;;;;;3.60;1.60;;;12.90;99.90;;;;;;5095254;28;20147;-69
2022/04/22 09:47:27;;;;;;;2.15;1.58;;;13.00;99.90;;;;;;5094907;28;20119;-68
2022/04/22 09:49:54;;;;;;;4.15;1.95;;;13.10;99.90;;;;;;5095193;28;20083;-68
2022/04/22 09:52:30;;;;;;;3.33;1.83;;;13.10;99.90;;;;;;5094765;28;20414;-69
2022/04/22 09:55:06;;;;;;;3.50;1.80;;;13.20;99.90;;;;;;5094374;28;20094;-68
2022/04/22 09:57:55;;;;;;;3.05;1.75;;;13.20;99.90;;;;;;5095163;28;20048;-68
2022/04/22 10:00:30;;;;;;;2.75;1.55;;;13.00;99.90;;;;;;5095140;28;20051;-68
2022/04/22 10:02:56;;;;;;;3.70;1.98;;;13.30;99.90;;;;;;5095090;28;20036;-68
2022/04/22 10:05:27;;;;;;;3.33;1.73;;;13.30;99.90;;;;;;5076155;28;20044;-68
2022/04/22 10:07:55;;;;;;;2.92;1.80;;;13.40;99.90;;;;;;5095512;28;20055;-69
2022/04/22 10:10:24;;;;;;;2.60;1.90;;;13.50;99.90;;;;;;5094535;28;20047;-69
2022/04/22 10:12:54;;;;;;;3.95;1.70;;;13.50;99.90;;;;;;5094397;28;20047;-68
2022/04/22 10:15:24;;;;;;;2.95;2.03;;;13.50;99.90;;;;;;5094372;28;20410;-69
2022/04/22 10:17:51;;;;;;;4.18;1.73;;;13.60;99.90;;;;;;5094635;28;20071;-69
2022/04/22 10:20:18;;;;;;;3.55;2.17;;;13.70;99.90;;;;;;5094491;28;20356;-70
2022/04/22 10:22:46;;;;;;;3.83;2.08;;;13.70;99.90;;;;;;5093866;28;20040;-69
2022/04/22 10:25:12;;;;;;;4.78;2.00;;;13.80;99.90;;;;;;5093719;28;20040;-69
2022/04/22 10:27:38;;;;;;;3.35;1.88;;;13.90;99.90;;;;;;5093314;28;20067;-69
2022/04/22 10:30:09;;;;;;;3.67;1.90;;;13.90;99.90;;;;;;5093675;28;20048;-69
2022/04/22 10:32:36;;;;;;;3.08;1.60;;;13.90;99.90;;;;;;5093037;28;20047;-68
2022/04/22 10:35:03;;;;;;;3.33;1.80;;;14.10;99.90;;;;;;5075905;28;20054;-69
2022/04/22 10:37:31;;;;;;;3.17;1.90;;;14.10;99.90;;;;;;5093440;28;20055;-68
2022/04/22 10:39:58;;;;;;;2.85;1.58;;;14.10;99.90;;;;;;5093555;28;20047;-69
2022/04/22 10:42:39;;;;;;;2.30;1.60;;;14.20;99.90;;;;;;5075721;28;20150;-69
2022/04/22 10:47:51;;;;;;;4.40;1.80;;;14.20;99.70;;;;;;5093789;28;20079;-70
2022/04/22 10:50:31;;;;;;;4.03;2.10;;;14.20;99.90;;;;;;5059482;28;20079;-68
2022/04/22 10:53:02;;;;;;;4.75;1.95;;;14.30;99.90;;;;;;5075630;28;20153;-68
2022/04/22 10:55:39;;;;;;;3.83;1.80;;;14.40;99.70;;;;;;5094327;28;20047;-68
2022/04/22 10:58:13;;;;;;;5.25;1.90;;;14.40;99.50;;;;;;5075797;28;20470;-68
2022/04/22 11:00:49;;;;;;;3.08;1.80;;;14.40;99.50;;;;;;5093022;28;20059;-68
2022/04/22 11:03:19;;;;;;;5.22;2.13;;;14.50;99.80;;;;;;5094088;28;20044;-69
2022/04/22 11:05:54;;;;;;;3.05;1.92;;;14.50;99.40;;;;;;5092660;28;20495;-69
2022/04/22 11:08:25;;;;;;;4.93;2.35;;;14.60;99.10;;;;;;5075370;28;20036;-69
2022/04/22 11:10:51;;;;;;;4.55;2.45;;;14.60;99.00;;;;;;5058735;28;20503;-68
2022/04/22 11:13:46;;;;;;;3.95;2.10;;;14.70;99.30;;;;;;5092871;28;20040;-70
2022/04/22 11:16:32;;;;;;;3.28;2.33;;;14.70;99.60;;;;;;5093556;28;20068;-68
2022/04/22 11:19:19;;;;;;;4.28;2.35;;;14.70;99.40;;;;;;5093998;28;20048;-68
2022/04/22 11:21:48;;;;;;;5.63;2.60;;;14.80;99.40;;;;;;5075276;28;20093;-69
2022/04/22 11:24:19;;;;;;;4.57;2.00;;;14.90;99.00;;;;;;5074857;28;20075;-70
2022/04/22 11:26:45;;;;;;;4.88;2.40;;;14.90;98.60;;;;;;5091970;28;20046;-69
2022/04/22 11:29:12;;;;;;;4.07;2.65;;;15.00;98.90;;;;;;5074824;28;20090;-69
2022/04/22 11:31:39;;;;;;;5.97;2.15;;;15.10;98.60;;;;;;5092429;28;20044;-69
2022/04/22 11:34:11;;;;;;;3.00;2.50;;;15.10;98.50;;;;;;5073812;28;20177;-69
2022/04/22 11:36:47;;;;;;;4.55;2.55;;;15.10;98.00;;;;;;5093639;28;20403;-71
2022/04/22 11:39:23;;;;;;;3.35;2.10;;;15.10;97.80;;;;;;5075425;28;20080;-69
2022/04/22 11:41:57;;;;;;;5.50;2.30;;;15.20;97.10;;;;;;5092164;28;20047;-70
2022/04/22 11:44:27;;;;;;;4.63;2.38;;;15.20;97.10;;;;;;5092928;28;20087;-69
2022/04/22 11:46:53;;;;;;;3.00;2.60;;;15.30;97.10;;;;;;5074072;28;20468;-69
2022/04/22 11:49:28;;;;;;;4.20;2.45;;;15.30;97.30;;;;;;5092604;28;20040;-69
2022/04/22 11:51:54;;;;;;;4.97;2.45;;;15.30;97.30;;;;;;5092638;28;20131;-69
2022/04/22 11:54:26;;;;;;;3.90;2.70;;;15.50;97.10;;;;;;5057864;28;20115;-69
2022/04/22 11:56:53;;;;;;;3.47;2.85;;;15.50;96.70;;;;;;5092963;28;20040;-69
2022/04/22 11:59:22;;;;;;;4.57;2.33;;;15.60;95.90;;;;;;5092532;28;20055;-69
2022/04/22 12:10:06;;;;;;;3.20;2.33;;;15.70;95.60;;;;;;5074755;28;20044;-69
2022/04/22 12:12:32;;;;;;;5.70;2.90;;;15.90;95.70;;;;;;5093241;28;20036;-69
2022/04/22 12:15:02;;;;;;;2.53;2.10;;;15.90;95.10;;;;;;5041231;28;20043;-70
2022/04/22 12:17:28;;;;;;;4.25;2.60;;;14.90;94.50;;;;;;5075645;28;20044;-68
2022/04/22 12:19:54;;;;;;;5.00;2.88;;;16.00;94.80;;;;;;5092575;28;20075;-69
2022/04/22 12:22:25;;;;;;;5.05;3.10;;;16.00;94.30;;;;;;5092899;28;20085;-70
2022/04/22 12:25:14;;;;;;;4.53;3.00;;;16.10;94.40;;;;;;5092268;28;20084;-69
2022/04/22 12:27:41;;;;;;;4.20;2.28;;;16.10;94.10;;;;;;5092236;28;20040;-70
2022/04/22 12:30:09;;;;;;;4.45;2.90;;;16.20;94.00;;;;;;5092339;28;20091;-69
2022/04/22 12:32:37;;;;;;;4.72;2.50;;;16.20;93.90;;;;;;5092381;28;20105;-69
2022/04/22 12:35:29;;;;;;;4.90;3.30;;;16.20;93.70;;;;;;5092263;28;20123;-69
2022/04/22 12:37:56;;;;;;;4.50;2.72;;;16.20;94.10;;;;;;5089828;28;20059;-69
2022/04/22 12:40:22;;;;;;;6.75;2.90;;;16.30;93.80;;;;;;5063090;28;20052;-69
2022/04/22 12:42:51;;;;;;;6.55;3.30;;;16.30;94.10;;;;;;5062276;28;20036;-69
2022/04/22 12:53:46;;;;;;;5.60;3.38;;;16.60;94.20;;;;;;5097407;28;20051;-70
2022/04/22 12:56:11;;;;;;;5.15;3.00;;;16.70;93.90;;;;;;5096587;28;20040;-71
2022/04/22 12:58:54;;;;;;;5.80;3.22;;;16.70;94.10;;;;;;5097297;28;20036;-70
2022/04/22 13:01:21;;;;;;;;;;;16.80;94.00;;;;;;5096887;28;20039;-70
2022/04/22 13:03:47;;;;;;;3.40;3.10;;;16.90;93.20;;;;;;5078337;28;20245;-70
2022/04/22 13:06:33;;;;;;;6.82;3.60;;;17.00;92.40;;;;;;5096366;28;20135;-71
2022/04/22 13:08:59;;;;;;;3.90;2.92;;;17.00;92.50;;;;;;5097063;28;20040;-69
2022/04/22 13:11:24;;;;;;;5.20;2.88;;;17.10;92.90;;;;;;5096366;28;20043;-69
2022/04/22 13:13:50;;;;;;;4.20;2.85;;;17.10;92.10;;;;;;5097035;28;20040;-69
2022/04/22 13:16:16;;;;;;;4.70;3.10;;;17.20;92.10;;;;;;5078250;28;20526;-72
2022/04/22 13:18:41;;;;;;;5.05;3.15;;;17.20;91.30;;;;;;5096187;28;20040;-70
2022/04/22 13:21:07;;;;;;;4.72;3.20;;;17.30;91.20;;;;;;5096102;28;20083;-70
2022/04/22 13:23:33;;;;;;;5.72;3.20;;;17.30;91.20;;;;;;5096053;28;20036;-70
2022/04/22 13:25:59;;;;;;;5.35;3.00;;;17.30;91.50;;;;;;5096031;28;20475;-69
2022/04/22 13:28:25;;;;;;;3.38;2.90;;;17.30;91.20;;;;;;5095953;28;20127;-69
2022/04/22 13:30:51;;;;;;;5.63;3.35;;;17.30;91.30;;;;;;5096391;28;20051;-70
2022/04/22 13:33:16;;;;;;;4.82;3.25;;;17.30;90.60;;;;;;5094749;28;20036;-69
2022/04/22 13:35:42;;;;;;;6.57;3.40;;;17.30;90.20;;;;;;5093159;28;20074;-69
2022/04/22 13:38:08;;;;;;;6.50;2.97;;;17.20;90.00;;;;;;5094011;28;20047;-68
2022/04/22 13:40:33;;;;;;;6.50;3.30;;;17.20;90.10;;;;;;5093521;28;20086;-69
2022/04/22 13:42:59;;;;;;;5.05;3.35;;;17.10;90.20;;;;;;5094294;28;20040;-69
2022/04/22 13:53:38;;;;;;;6.85;3.97;;;17.40;89.50;;;;;;5076420;28;20047;-69
2022/04/22 13:56:05;;;;;;;6.40;3.55;;;17.50;89.40;;;;;;5076756;28;20036;-69
2022/04/22 13:58:32;;;;;;;4.28;2.92;;;17.50;89.20;;;;;;5093865;28;20077;-69
2022/04/22 14:00:59;;;;;;;4.78;2.97;;;17.50;89.80;;;;;;5075748;28;20040;-68
2022/04/22 14:03:24;;;;;;;4.25;3.15;;;17.50;88.80;;;;;;5094607;28;20046;-68
2022/04/22 14:05:50;;;;;;;7.50;3.67;;;17.60;88.40;;;;;;5076104;28;20036;-68
2022/04/22 14:08:16;;;;;;;5.13;3.30;;;17.70;87.40;;;;;;5075886;28;20384;-68
2022/04/22 14:10:41;;;;;;;7.22;3.13;;;17.70;87.20;;;;;;5059543;28;20048;-71
2022/04/22 14:13:07;;;;;;;5.72;3.55;;;17.80;87.60;;;;;;5093796;28;20502;-67
2022/04/22 14:15:33;;;;;;;8.30;3.40;;;17.80;86.80;;;;;;5094409;28;20040;-67
2022/04/22 14:17:59;;;;;;;4.47;3.40;;;17.90;86.40;;;;;;5075327;28;20043;-68